< Typhoon 195213 1952 Season Typhoon 195215 >
Typhoon 195214 (POLLY)
General InformationTrack Information on Google Maps || Disaster Info.ResourceGoogle EarthGE AnimationAtom FeedGeoJSON
Detalied Best Track (Time Zone = UTC)
Year Month Day Hour Lat. Long. Pressure (hPa) Wind (kt) Class Image Chart
1952 9 24 12 11.0 157.0 1004 0 2 -- Chart
1952 9 24 18 11.5 155.7 1004 0 2 -- Chart
1952 9 25 00 12.0 154.4 1004 0 2 -- Chart
1952 9 25 06 12.4 153.1 1004 0 2 -- Chart
1952 9 25 12 12.8 151.9 1004 0 2 -- Chart
1952 9 25 18 13.1 150.9 1004 0 2 -- Chart
1952 9 26 00 13.4 149.8 1004 0 2 -- Chart
1952 9 26 06 13.7 148.6 1004 0 2 -- Chart
1952 9 26 12 14.0 147.3 1004 0 2 -- Chart
1952 9 26 18 14.3 146.0 1004 0 2 -- Chart
1952 9 27 00 14.6 145.1 1004 0 2 -- Chart
1952 9 27 06 14.9 144.3 1004 0 2 -- Chart
1952 9 27 12 15.0 143.7 1004 0 2 -- Chart
1952 9 27 18 15.1 143.3 1002 0 2 -- Chart
1952 9 28 00 15.7 143.0 998 0 2 -- Chart
1952 9 28 06 17.3 142.7 996 0 9 -- Chart
1952 9 28 12 18.8 142.3 998 0 9 -- Chart
1952 9 28 18 19.8 142.0 998 0 9 -- Chart
1952 9 29 00 20.7 141.9 995 0 9 -- Chart
1952 9 29 06 22.3 141.4 990 0 9 -- Chart
1952 9 29 12 23.7 141.1 985 0 9 -- Chart
1952 9 29 18 24.8 141.0 983 0 9 -- Chart
1952 9 30 00 25.8 140.9 985 0 9 -- Chart
1952 9 30 06 26.7 140.9 980 0 9 -- Chart
1952 9 30 12 29.1 141.2 980 0 9 -- Chart
1952 9 30 18 30.3 141.6 975 0 9 -- Chart
1952 10 1 00 31.7 142.5 975 0 9 -- Chart
1952 10 1 06 35.0 144.5 980 0 9 -- Chart
1952 10 1 12 36.0 145.5 980 0 9 -- Chart
1952 10 1 18 36.6 146.9 980 0 9 -- Chart
1952 10 2 00 37.4 148.3 980 0 9 -- Chart
1952 10 2 06 37.9 150.2 980 0 9 -- Chart
1952 10 2 12 38.0 152.2 980 0 6 -- Chart
1952 10 2 18 38.1 154.2 980 0 6 -- Chart
1952 10 3 00 38.0 156.0 980 0 6 -- Chart
1952 10 3 06 37.9 157.7 985 0 6 -- Chart
1952 10 3 12 37.7 159.1 990 0 6 -- Chart
1952 10 3 18 37.5 160.6 990 0 6 -- Chart
1952 10 4 00 37.2 162.4 998 0 6 -- Chart
1952 10 4 06 36.9 164.1 1002 0 6 -- Chart
1952 10 4 12 36.4 166.0 1004 0 6 -- Chart
1952 10 4 18 35.9 168.0 1008 0 6 -- Chart
1952 10 5 00 36.0 169.3 1008 0 6 -- Chart
1952 10 5 06 37.0 171.0 1010 0 6 -- Chart
1952 10 5 12 37.2 171.4 1012 0 6 -- Chart
1952 10 5 18 37.5 172.0 1014 0 6 -- Chart
1952 10 6 00 37.8 173.0 1015 0 6 -- Chart
Japan Meteorological Agency Best Track Data | Correction Date : 1989-06-01
< Typhoon 195213 1952 Season Typhoon 195215 >

Help